createdAt,value
2018-11-05T00:02:01.042Z,11.88
2018-11-05T00:04:30.329Z,11.80
2018-11-05T00:06:59.590Z,11.50
2018-11-05T00:09:28.847Z,10.53
2018-11-05T00:11:58.110Z,10.80
2018-11-05T00:14:27.353Z,11.22
2018-11-05T00:16:56.589Z,10.85
2018-11-05T00:19:25.843Z,11.45
2018-11-05T00:21:55.086Z,10.45
2018-11-05T00:24:24.332Z,11.22
2018-11-05T00:26:53.580Z,9.58
2018-11-05T00:29:22.827Z,10.60
2018-11-05T00:31:52.059Z,9.95
2018-11-05T00:34:21.296Z,10.00
2018-11-05T00:36:50.534Z,10.30
2018-11-05T00:39:19.772Z,11.18
2018-11-05T00:41:49.035Z,11.03
2018-11-05T00:44:18.306Z,11.15
2018-11-05T00:46:47.575Z,10.98
2018-11-05T00:49:16.803Z,11.05
2018-11-05T00:51:46.087Z,12.20
2018-11-05T00:54:15.352Z,11.50
2018-11-05T00:56:44.595Z,11.80
2018-11-05T00:59:13.865Z,12.13
2018-11-05T01:01:43.188Z,10.35
2018-11-05T01:04:12.458Z,10.50
2018-11-05T01:06:41.709Z,11.25
2018-11-05T01:09:10.984Z,11.60
2018-11-05T01:11:40.225Z,9.55
2018-11-05T01:14:09.785Z,11.35
2018-11-05T01:16:39.030Z,10.72
2018-11-05T01:19:08.361Z,10.25
2018-11-05T01:21:37.626Z,10.25
2018-11-05T01:24:06.875Z,10.63
2018-11-05T01:26:36.131Z,10.75
2018-11-05T01:29:05.366Z,9.83
2018-11-05T01:31:34.611Z,10.45
2018-11-05T01:34:03.880Z,11.25
2018-11-05T01:36:33.128Z,9.48
2018-11-05T01:39:02.367Z,12.20
2018-11-05T01:41:31.600Z,9.70
2018-11-05T01:44:00.839Z,10.38
2018-11-05T01:46:30.108Z,10.88
2018-11-05T01:48:59.358Z,10.40
2018-11-05T01:51:28.575Z,10.68
2018-11-05T01:53:57.871Z,10.72
2018-11-05T01:56:27.124Z,9.95
2018-11-05T01:58:56.327Z,10.28
2018-11-05T02:01:25.566Z,10.18
2018-11-05T02:03:54.809Z,10.00
2018-11-05T02:06:24.080Z,10.78
2018-11-05T02:08:53.297Z,10.13
2018-11-05T02:11:22.563Z,11.78
2018-11-05T02:13:51.782Z,11.97
2018-11-05T02:16:21.071Z,12.53
2018-11-05T02:18:50.280Z,12.18
2018-11-05T02:21:19.560Z,12.82
2018-11-05T02:23:48.810Z,12.63
2018-11-05T02:26:18.035Z,13.88
2018-11-05T02:28:47.613Z,12.73
2018-11-05T02:31:16.844Z,11.80
2018-11-05T02:33:46.091Z,10.32
2018-11-05T02:36:15.334Z,12.20
2018-11-05T02:38:44.581Z,12.50
2018-11-05T02:41:13.851Z,13.68
2018-11-05T02:43:43.127Z,12.30
2018-11-05T02:46:12.370Z,11.53
2018-11-05T02:48:42.490Z,11.93
2018-11-05T02:51:11.776Z,12.07
2018-11-05T02:53:41.026Z,13.18
2018-11-05T02:56:10.284Z,13.85
2018-11-05T02:58:39.527Z,10.23
2018-11-05T03:01:08.753Z,12.40
2018-11-05T03:03:37.970Z,13.85
2018-11-05T03:06:07.219Z,11.70
2018-11-05T03:08:36.451Z,14.83
2018-11-05T03:11:05.735Z,15.30
2018-11-05T03:13:34.937Z,15.75
2018-11-05T03:16:04.214Z,13.85
2018-11-05T03:18:33.478Z,16.25
2018-11-05T03:21:02.739Z,14.23
2018-11-05T03:23:31.975Z,13.90
2018-11-05T03:26:01.203Z,15.13
2018-11-05T03:28:30.472Z,12.65
2018-11-05T03:30:59.693Z,11.63
2018-11-05T03:33:28.930Z,12.68
2018-11-05T03:35:58.236Z,11.48
2018-11-05T03:38:27.409Z,12.55
2018-11-05T03:40:56.645Z,12.05
2018-11-05T03:43:25.903Z,12.58
2018-11-05T03:45:55.107Z,9.00
2018-11-05T03:48:24.328Z,9.53
2018-11-05T03:50:53.540Z,7.95
2018-11-05T03:53:22.774Z,10.13
2018-11-05T03:55:52.045Z,9.60
2018-11-05T03:58:21.275Z,8.43
2018-11-05T04:00:50.516Z,8.90
2018-11-05T04:03:19.796Z,8.90
2018-11-05T04:05:48.989Z,10.25
2018-11-05T04:08:18.194Z,9.03
2018-11-05T04:10:47.406Z,10.15
2018-11-05T04:13:16.655Z,12.45
2018-11-05T04:15:45.983Z,9.55
2018-11-05T04:18:15.151Z,9.50
2018-11-05T04:20:44.384Z,9.80
2018-11-05T04:23:13.619Z,9.05
2018-11-05T04:25:42.857Z,7.95
2018-11-05T04:28:12.100Z,8.15
2018-11-05T04:30:41.318Z,7.42
2018-11-05T04:33:10.554Z,8.05
2018-11-05T04:35:39.807Z,8.00
2018-11-05T04:38:09.092Z,8.20
2018-11-05T04:40:38.287Z,8.45
2018-11-05T04:43:07.564Z,8.00
2018-11-05T04:45:36.795Z,10.00
2018-11-05T04:48:06.068Z,9.35
2018-11-05T04:50:35.293Z,9.28
2018-11-05T04:53:04.573Z,9.10
2018-11-05T04:55:33.827Z,8.90
2018-11-05T04:58:03.075Z,8.08
2018-11-05T05:00:32.904Z,8.05
2018-11-05T05:03:02.142Z,8.15
2018-11-05T05:05:31.363Z,7.80
2018-11-05T05:08:00.699Z,10.23
2018-11-05T05:10:29.924Z,7.25
2018-11-05T05:12:59.223Z,6.65
2018-11-05T05:15:28.417Z,7.08
2018-11-05T05:17:57.639Z,6.53
2018-11-05T05:20:26.988Z,7.78
2018-11-05T05:22:56.488Z,7.15
2018-11-05T05:25:25.572Z,7.75
2018-11-05T05:27:54.807Z,7.78
2018-11-05T05:30:24.035Z,6.83
2018-11-05T05:32:53.330Z,7.12
2018-11-05T05:35:22.524Z,9.10
2018-11-05T05:37:51.762Z,11.97
2018-11-05T05:40:21.007Z,8.40
2018-11-05T05:42:50.282Z,8.75
2018-11-05T05:45:19.497Z,7.70
2018-11-05T05:47:48.698Z,6.28
2018-11-05T05:50:18.236Z,7.50
2018-11-05T05:52:48.690Z,8.60
2018-11-05T05:55:17.935Z,5.80
2018-11-05T05:57:47.176Z,7.25
2018-11-05T06:00:17.442Z,7.30
2018-11-05T06:02:46.685Z,9.05
2018-11-05T06:05:16.247Z,9.18
2018-11-05T06:07:45.495Z,10.90
2018-11-05T06:10:15.560Z,10.48
2018-11-05T06:12:44.971Z,9.18
2018-11-05T06:15:15.410Z,10.35
2018-11-05T06:17:44.691Z,10.18
2018-11-05T06:20:16.236Z,8.33
2018-11-05T06:22:46.287Z,8.58
2018-11-05T06:25:15.887Z,9.43
2018-11-05T06:27:45.134Z,8.80
2018-11-05T06:30:16.516Z,8.20
2018-11-05T06:32:46.647Z,6.95
2018-11-05T06:35:15.962Z,8.00
2018-11-05T06:37:45.118Z,7.95
2018-11-05T06:40:16.075Z,7.10
2018-11-05T06:42:45.662Z,7.30
2018-11-05T06:45:16.260Z,7.40
2018-11-05T06:47:46.154Z,6.50
2018-11-05T06:50:18.722Z,7.22
2018-11-05T06:52:47.939Z,7.12
2018-11-05T06:55:17.191Z,9.05
2018-11-05T06:57:46.485Z,7.85
2018-11-05T07:00:18.712Z,8.55
2018-11-05T07:02:47.979Z,8.23
2018-11-05T07:05:17.294Z,8.05
2018-11-05T07:07:46.552Z,8.28
2018-11-05T07:10:16.437Z,10.28
2018-11-05T07:12:45.943Z,9.20
2018-11-05T07:15:16.435Z,8.70
2018-11-05T07:17:46.778Z,13.32
2018-11-05T07:20:17.314Z,8.78
2018-11-05T07:22:47.340Z,7.72
2018-11-05T07:25:16.834Z,7.95
2018-11-05T07:27:46.158Z,8.00
2018-11-05T07:30:20.177Z,8.70
2018-11-05T07:32:50.683Z,6.53
2018-11-05T07:35:19.955Z,7.45
2018-11-05T07:37:49.221Z,7.15
2018-11-05T07:40:19.182Z,8.45
2018-11-05T07:42:48.443Z,7.00
2018-11-05T07:45:19.957Z,7.83
2018-11-05T07:47:49.346Z,7.80
2018-11-05T07:50:19.424Z,7.80
2018-11-05T07:52:48.992Z,7.40
2018-11-05T07:55:18.978Z,6.53
2018-11-05T07:57:49.226Z,7.62
2018-11-05T08:00:23.871Z,8.93
2018-11-05T08:02:54.717Z,8.28
2018-11-05T08:05:24.393Z,8.48
2018-11-05T08:07:53.737Z,8.03
2018-11-05T08:10:22.962Z,8.10
2018-11-05T08:12:52.220Z,8.00
2018-11-05T08:15:22.717Z,7.90
2018-11-05T08:17:52.547Z,8.00
2018-11-05T08:20:21.812Z,8.10
2018-11-05T08:22:51.017Z,6.92
2018-11-05T08:25:20.257Z,6.92
2018-11-05T08:27:49.480Z,7.10
2018-11-05T08:30:21.156Z,7.30
2018-11-05T08:32:50.475Z,8.55
2018-11-05T08:35:19.738Z,7.25
2018-11-05T08:37:49.302Z,8.70
2018-11-05T08:40:20.695Z,9.58
2018-11-05T08:42:50.793Z,7.85
2018-11-05T08:45:21.324Z,7.40
2018-11-05T08:47:50.567Z,8.60
2018-11-05T08:50:21.086Z,7.67
2018-11-05T08:52:50.189Z,8.00
2018-11-05T08:55:20.889Z,8.30
2018-11-05T08:57:50.205Z,8.90
2018-11-05T09:00:24.962Z,7.85
2018-11-05T09:02:54.711Z,7.55
2018-11-05T09:05:24.219Z,7.55
2018-11-05T09:07:54.263Z,7.65
2018-11-05T09:10:23.718Z,9.03
2018-11-05T09:12:52.698Z,7.90
2018-11-05T09:15:22.666Z,7.83
2018-11-05T09:17:52.179Z,8.13
2018-11-05T09:20:21.423Z,8.10
2018-11-05T09:22:51.413Z,9.83
2018-11-05T09:25:20.715Z,8.45
2018-11-05T09:27:50.016Z,8.60
2018-11-05T09:30:21.662Z,9.05
2018-11-05T09:32:50.903Z,7.87
2018-11-05T09:35:20.188Z,9.18
2018-11-05T09:37:49.446Z,8.40
2018-11-05T09:40:20.106Z,8.35
2018-11-05T09:42:49.744Z,8.73
2018-11-05T09:45:23.933Z,8.78
2018-11-05T09:47:53.170Z,8.80
2018-11-05T09:50:22.487Z,7.90
2018-11-05T09:52:51.723Z,9.63
2018-11-05T09:55:20.984Z,9.03
2018-11-05T09:57:50.405Z,8.55
2018-11-05T10:00:26.907Z,8.13
2018-11-05T10:03:03.261Z,8.53
2018-11-05T10:05:32.463Z,7.83
2018-11-05T10:08:01.638Z,9.15
2018-11-05T10:10:31.005Z,8.80
2018-11-05T10:13:01.336Z,8.63
2018-11-05T10:15:30.555Z,8.50
2018-11-05T10:17:59.821Z,9.45
2018-11-05T10:20:29.051Z,8.40
2018-11-05T10:22:58.298Z,9.23
2018-11-05T10:25:27.543Z,8.80
2018-11-05T10:28:01.998Z,8.63
2018-11-05T10:30:31.438Z,9.18
2018-11-05T10:33:00.700Z,9.23
2018-11-05T10:35:35.318Z,9.20
2018-11-05T10:38:04.684Z,8.80
2018-11-05T10:40:33.984Z,8.80
2018-11-05T10:43:03.249Z,8.67
2018-11-05T10:45:32.483Z,8.35
2018-11-05T10:48:01.772Z,9.40
2018-11-05T10:50:31.051Z,7.30
2018-11-05T10:53:00.264Z,7.87
2018-11-05T10:55:29.588Z,6.60
2018-11-05T10:57:58.798Z,6.67
2018-11-05T11:00:33.406Z,7.17
2018-11-05T11:03:07.923Z,7.00
2018-11-05T11:05:37.241Z,5.40
2018-11-05T11:08:06.519Z,5.53
2018-11-05T11:10:35.755Z,5.37
2018-11-05T11:13:05.239Z,5.57
2018-11-05T11:15:34.506Z,5.33
2018-11-05T11:18:03.742Z,4.20
2018-11-05T11:20:33.011Z,5.07
2018-11-05T11:23:02.223Z,6.00
2018-11-05T11:25:31.438Z,6.07
2018-11-05T11:28:00.900Z,6.00
2018-11-05T11:30:29.911Z,5.10
2018-11-05T11:32:59.158Z,5.40
2018-11-05T11:35:28.370Z,5.10
2018-11-05T11:37:57.720Z,4.17
2018-11-05T11:40:26.977Z,5.43
2018-11-05T11:42:56.321Z,6.00
2018-11-05T11:45:25.671Z,5.70
2018-11-05T11:47:54.923Z,5.50
2018-11-05T11:50:24.307Z,7.40
2018-11-05T11:52:53.893Z,5.40
2018-11-05T11:55:24.123Z,5.20
2018-11-05T11:57:53.350Z,6.20
2018-11-05T12:00:24.058Z,5.10
2018-11-05T12:02:53.802Z,4.67
2018-11-05T12:05:23.224Z,5.20
2018-11-05T12:07:52.417Z,4.43
2018-11-05T12:10:23.359Z,5.60
2018-11-05T12:12:52.577Z,5.73
2018-11-05T12:15:22.654Z,5.07
2018-11-05T12:17:53.010Z,4.33
2018-11-05T12:20:23.798Z,5.50
2018-11-05T12:22:53.550Z,5.63
2018-11-05T12:25:22.952Z,4.60
2018-11-05T12:27:52.215Z,4.50
2018-11-05T12:30:22.659Z,4.63
2018-11-05T12:32:53.096Z,5.07
2018-11-05T12:35:22.346Z,4.10
2018-11-05T12:37:52.558Z,4.17
2018-11-05T12:40:22.634Z,4.50
2018-11-05T12:42:52.268Z,4.20
2018-11-05T12:45:21.502Z,3.97
2018-11-05T12:47:50.755Z,3.87
2018-11-05T12:50:22.205Z,4.00
2018-11-05T12:52:52.730Z,3.73
2018-11-05T12:55:21.950Z,3.40
2018-11-05T12:57:51.325Z,3.63
2018-11-05T13:00:23.213Z,3.20
2018-11-05T13:03:00.612Z,3.47
2018-11-05T13:05:31.229Z,3.87
2018-11-05T13:08:00.461Z,3.43
2018-11-05T13:10:29.709Z,3.67
2018-11-05T13:12:58.994Z,3.20
2018-11-05T13:15:28.361Z,4.10
2018-11-05T13:17:57.389Z,2.40
2018-11-05T13:20:26.627Z,3.23
2018-11-05T13:22:55.837Z,2.93
2018-11-05T13:25:25.072Z,3.10
2018-11-05T13:27:54.287Z,3.40
2018-11-05T13:30:23.584Z,3.07
2018-11-05T13:32:52.885Z,3.07
2018-11-05T13:35:22.556Z,3.40
2018-11-05T13:37:52.261Z,3.53
2018-11-05T13:40:22.364Z,3.60
2018-11-05T13:42:52.297Z,3.30
2018-11-05T13:45:22.500Z,3.67
2018-11-05T13:47:51.856Z,3.50
2018-11-05T13:50:20.774Z,2.57
2018-11-05T13:52:49.582Z,3.47
2018-11-05T13:55:18.818Z,3.30
2018-11-05T13:57:48.853Z,3.30
2018-11-05T14:00:19.458Z,3.30
2018-11-05T14:02:49.074Z,3.10
2018-11-05T14:05:18.354Z,3.80
2018-11-05T14:07:47.647Z,4.20
2018-11-05T14:10:18.670Z,2.70
2018-11-05T14:12:48.655Z,3.17
2018-11-05T14:15:18.173Z,3.37
2018-11-05T14:17:47.746Z,3.30
2018-11-05T14:20:18.271Z,3.60
2018-11-05T14:22:47.572Z,3.53
2018-11-05T14:25:18.101Z,3.10
2018-11-05T14:27:48.817Z,3.40
2018-11-05T14:30:17.926Z,3.17
2018-11-05T14:32:48.258Z,3.40
2018-11-05T14:35:17.502Z,3.17
2018-11-05T14:37:46.776Z,3.37
2018-11-05T14:40:16.994Z,3.37
2018-11-05T14:42:46.402Z,3.23
2018-11-05T14:45:17.039Z,3.00
2018-11-05T14:47:46.835Z,2.40
2018-11-05T14:50:17.900Z,2.73
2018-11-05T14:52:47.134Z,2.77
2018-11-05T14:55:17.687Z,2.50
2018-11-05T14:57:48.147Z,2.83
2018-11-05T15:00:19.519Z,2.63
2018-11-05T15:02:49.444Z,3.63
2018-11-05T15:05:18.707Z,2.57
2018-11-05T15:07:48.811Z,3.73
2018-11-05T15:10:21.230Z,3.67
2018-11-05T15:12:50.643Z,3.57
2018-11-05T15:15:20.535Z,3.83
2018-11-05T15:17:49.726Z,4.40
2018-11-05T15:20:20.414Z,3.20
2018-11-05T15:22:49.555Z,3.30
2018-11-05T15:25:19.482Z,4.03
2018-11-05T15:27:48.804Z,4.23
2018-11-05T15:30:20.526Z,4.17
2018-11-05T15:32:49.914Z,3.60
2018-11-05T15:35:19.093Z,4.23
2018-11-05T15:37:48.335Z,3.73
2018-11-05T15:40:18.979Z,5.00
2018-11-05T15:42:48.388Z,3.80
2018-11-05T15:45:19.002Z,3.93
2018-11-05T15:47:48.235Z,4.00
2018-11-05T15:50:18.746Z,4.40
2018-11-05T15:52:48.488Z,5.47
2018-11-05T15:55:17.434Z,6.43
2018-11-05T15:57:46.669Z,5.77
2018-11-05T16:00:21.114Z,5.67
2018-11-05T16:02:51.908Z,4.10
2018-11-05T16:05:21.293Z,3.90
2018-11-05T16:07:50.654Z,4.30
2018-11-05T16:10:19.914Z,4.50
2018-11-05T16:12:49.158Z,4.60
2018-11-05T16:15:18.513Z,4.80
2018-11-05T16:17:47.783Z,4.03
2018-11-05T16:20:19.373Z,3.70
2018-11-05T16:22:49.681Z,3.93
2018-11-05T16:25:18.983Z,4.13
2018-11-05T16:27:48.238Z,4.23
2018-11-05T16:30:18.999Z,3.60
2018-11-05T16:32:48.750Z,4.40
2018-11-05T16:35:18.099Z,4.00
2018-11-05T16:37:47.375Z,3.67
2018-11-05T16:40:17.782Z,4.37
2018-11-05T16:42:48.320Z,4.30
2018-11-05T16:45:17.749Z,4.90
2018-11-05T16:47:47.435Z,3.80
2018-11-05T16:50:20.290Z,4.07
2018-11-05T16:52:49.581Z,4.53
2018-11-05T16:55:18.934Z,5.67
2018-11-05T16:57:48.265Z,4.37
2018-11-05T17:00:17.939Z,4.87
2018-11-05T17:02:47.914Z,5.03
2018-11-05T17:05:17.168Z,4.90
2018-11-05T17:07:46.383Z,4.83
2018-11-05T17:10:16.158Z,4.97
2018-11-05T17:12:45.655Z,4.70
2018-11-05T17:15:16.220Z,4.50
2018-11-05T17:17:45.978Z,4.30
2018-11-05T17:20:17.454Z,5.70
2018-11-05T17:22:46.963Z,4.83
2018-11-05T17:25:16.680Z,5.03
2018-11-05T17:27:47.001Z,4.63
2018-11-05T17:30:18.676Z,5.40
2018-11-05T17:32:48.027Z,4.47
2018-11-05T17:35:17.682Z,5.30
2018-11-05T17:37:47.574Z,4.60
2018-11-05T17:40:18.413Z,5.47
2018-11-05T17:42:47.698Z,5.40
2018-11-05T17:45:18.096Z,6.60
2018-11-05T17:47:47.834Z,7.97
2018-11-05T17:50:18.425Z,11.10
2018-11-05T17:52:47.686Z,11.73
2018-11-05T17:55:16.966Z,9.00
2018-11-05T17:57:47.258Z,9.40
2018-11-05T18:00:21.984Z,9.87
2018-11-05T18:02:51.474Z,8.70
2018-11-05T18:05:20.992Z,10.27
2018-11-05T18:07:50.308Z,9.80
2018-11-05T18:10:19.590Z,9.88
2018-11-05T18:12:48.890Z,9.23
2018-11-05T18:15:18.188Z,9.15
2018-11-05T18:17:47.593Z,10.48
2018-11-05T18:20:17.557Z,9.88
2018-11-05T18:22:46.800Z,9.68
2018-11-05T18:25:17.356Z,9.75
2018-11-05T18:27:46.731Z,8.67
2018-11-05T18:30:16.876Z,7.97
2018-11-05T18:32:52.746Z,8.80
2018-11-05T18:35:22.048Z,10.10
2018-11-05T18:37:52.661Z,9.50
2018-11-05T18:40:21.960Z,9.30
2018-11-05T18:42:51.251Z,10.00
2018-11-05T18:45:20.497Z,9.90
2018-11-05T18:47:49.759Z,9.80
2018-11-05T18:50:19.098Z,8.83
2018-11-05T18:52:48.462Z,9.38
2018-11-05T18:55:18.090Z,8.45
2018-11-05T18:57:47.401Z,8.20
2018-11-05T19:00:23.983Z,9.63
2018-11-05T19:02:54.291Z,8.88
2018-11-05T19:05:24.637Z,7.92
2018-11-05T19:07:53.913Z,7.58
2018-11-05T19:10:23.330Z,7.37
2018-11-05T19:12:53.447Z,7.97
2018-11-05T19:15:22.920Z,7.40
2018-11-05T19:17:52.369Z,11.80
2018-11-05T19:20:21.623Z,7.93
2018-11-05T19:22:50.989Z,11.63
2018-11-05T19:25:20.220Z,7.55
2018-11-05T19:27:49.444Z,7.28
2018-11-05T19:30:20.884Z,8.93
2018-11-05T19:32:50.079Z,9.30
2018-11-05T19:35:19.363Z,10.60
2018-11-05T19:37:48.816Z,9.23
2018-11-05T19:40:18.773Z,9.10
2018-11-05T19:42:48.862Z,7.72
2018-11-05T19:45:19.366Z,8.20
2018-11-05T19:47:49.518Z,8.80
2018-11-05T19:50:20.210Z,7.78
2018-11-05T19:52:50.550Z,7.55
2018-11-05T19:55:20.278Z,7.30
2018-11-05T19:57:50.420Z,6.95
2018-11-05T20:00:23.361Z,7.03
2018-11-05T20:02:53.105Z,8.93
2018-11-05T20:05:22.466Z,8.00
2018-11-05T20:07:52.405Z,8.85
2018-11-05T20:10:21.820Z,9.80
2018-11-05T20:12:52.093Z,9.83
2018-11-05T20:15:21.468Z,10.43
2018-11-05T20:17:52.632Z,10.95
2018-11-05T20:20:22.922Z,12.80
2018-11-05T20:22:52.186Z,9.98
2018-11-05T20:25:21.540Z,11.57
2018-11-05T20:27:50.994Z,12.60
2018-11-05T20:30:21.884Z,11.22
2018-11-05T20:32:52.735Z,10.75
2018-11-05T20:35:21.828Z,11.88
2018-11-05T20:37:51.286Z,11.78
2018-11-05T20:40:21.463Z,14.53
2018-11-05T20:42:51.783Z,13.40
2018-11-05T20:45:22.064Z,12.15
2018-11-05T20:47:51.322Z,12.95
2018-11-05T20:50:20.727Z,12.82
2018-11-05T20:52:50.152Z,12.58
2018-11-05T20:55:19.530Z,12.37
2018-11-05T20:57:48.868Z,12.80
2018-11-05T21:00:19.596Z,11.68
2018-11-05T21:02:48.895Z,13.13
2018-11-05T21:05:18.237Z,12.80
2018-11-05T21:07:47.524Z,14.30
2018-11-05T21:10:16.791Z,14.00
2018-11-05T21:12:46.076Z,13.15
2018-11-05T21:15:16.667Z,13.48
2018-11-05T21:17:46.963Z,13.70
2018-11-05T21:20:16.444Z,12.50
2018-11-05T21:22:46.183Z,12.75
2018-11-05T21:25:15.314Z,12.75
2018-11-05T21:27:45.014Z,13.25
2018-11-05T21:30:16.459Z,13.85
2018-11-05T21:32:45.777Z,13.00
2018-11-05T21:35:16.339Z,14.35
2018-11-05T21:37:45.680Z,14.85
2018-11-05T21:40:16.037Z,13.72
2018-11-05T21:42:45.315Z,11.57
2018-11-05T21:45:15.281Z,13.55
2018-11-05T21:47:45.276Z,14.10
2018-11-05T21:50:15.959Z,13.43
2018-11-05T21:52:45.630Z,14.65
2018-11-05T21:55:14.960Z,14.07
2018-11-05T21:57:45.519Z,13.65
2018-11-05T22:00:16.419Z,14.10
2018-11-05T22:02:50.963Z,13.53
2018-11-05T22:05:20.234Z,13.45
2018-11-05T22:07:49.763Z,11.93
2018-11-05T22:10:19.064Z,13.35
2018-11-05T22:12:48.817Z,14.75
2018-11-05T22:15:18.447Z,14.55
2018-11-05T22:17:47.699Z,13.38
2018-11-05T22:20:17.051Z,13.83
2018-11-05T22:22:46.294Z,12.98
2018-11-05T22:25:15.568Z,11.95
2018-11-05T22:27:44.815Z,11.03
2018-11-05T22:30:14.117Z,11.60
2018-11-05T22:32:43.403Z,9.70
2018-11-05T22:35:12.656Z,10.03
2018-11-05T22:37:41.902Z,9.40
2018-11-05T22:40:12.530Z,9.70
2018-11-05T22:42:42.014Z,9.65
2018-11-05T22:45:12.877Z,9.38
2018-11-05T22:47:42.784Z,9.78
2018-11-05T22:50:12.101Z,9.75
2018-11-05T22:52:41.982Z,10.68
2018-11-05T22:55:11.259Z,9.03
2018-11-05T22:57:40.495Z,9.60
2018-11-05T23:00:17.626Z,10.00
2018-11-05T23:02:52.331Z,10.35
2018-11-05T23:05:21.990Z,10.38
2018-11-05T23:07:52.346Z,9.15
2018-11-05T23:10:21.835Z,8.35
2018-11-05T23:12:51.156Z,10.53
2018-11-05T23:15:20.984Z,12.10
2018-11-05T23:17:50.862Z,12.07
2018-11-05T23:20:20.180Z,11.15
2018-11-05T23:22:49.451Z,11.08
2018-11-05T23:25:18.717Z,11.75
2018-11-05T23:27:48.028Z,11.95
2018-11-05T23:30:17.286Z,12.47
2018-11-05T23:32:46.513Z,9.85
2018-11-05T23:35:15.746Z,10.53
2018-11-05T23:37:45.014Z,10.38
2018-11-05T23:40:14.341Z,11.68
2018-11-05T23:42:43.625Z,10.28
2018-11-05T23:45:15.232Z,10.88
2018-11-05T23:47:44.629Z,10.50
2018-11-05T23:50:13.878Z,10.65
2018-11-05T23:52:43.114Z,10.10
2018-11-05T23:55:12.658Z,10.70
2018-11-05T23:57:41.882Z,10.08
